Houston, Texas
Traffic Map
Current Weather Conditions
Houston, Texas
Clear
Clear
88°
Feels Like: 91°
Wind Chill: 88° Ceiling: Unl
Heat Index: 91° Visibility: 10mi
Dew Point: 68° Wind: 6mph
Humidity: 52% Direction: 290° (WNW)
Pressure: 30.07in Gusts: 0mph
Raw Report DataKMCJ 291515Z AUTO 29005KT 10SM CLR 31/20 A3007 RMK AO1
Traffic Incident Summary
Active as of:
Severity:
Category:
InformationThere was an issue retrieving the traffic information for this location. Please try a different location or try again shortly.
Advertisements
Track Severe Weather on mobile